3PN8 weather

Wyeth Pharmaceuticals Heliport
Collegeville, Pennsylvania, United States

Public forecast

Using degrees Fahrenheit for public forecast. Weather courtesy of forecast.io.

METAR (pilot weather report)

Closest report is Heritage Field, 6.5 nm (12.0 km) NW. Retrieved 2019/07/23 17:14 UTC (13 minutes ago):

KPTW 231714Z AUTO 34007KT 10SM FEW021 SCT028 OVC033 22/18 A2989 RMK AO2 T02220183

TAF (pilot weather forecast)

Closest forecast is Philadelphia International Airport, 20.0 nm (37.1 km) SSE. Retrieved 2019/07/23 12:42 UTC (5 hours ago):

TAF KPHL 231138Z 2312/2418 32009KT P6SM VCSH SCT015 OVC035 TEMPO 2312/2315 BKN015 FM231900 24005KT P6SM OVC060 FM240200 06005KT P6SM BKN060 FM240800 36005KT P6SM BKN080 FM241200 01006KT P6SM SCT150